Time;durP1;ratioP1;P1;durP2;ratioP2;P2;SDS_P1;SDS_P2;PMS_P1;PMS_P2;Temp;Humidity;BMP_temperature;BMP_pressure;BME280_temperature;BME280_humidity;BME280_pressure;Samples;Min_cycle;Max_cycle;Signal;HPM_P1;HPM_P2
2023/09/03 00:00:47;;;;;;;;;;;;;;;13.17;100.00;102517.22;5051255;28;20207;-73
2023/09/03 00:03:12;;;;;;;;;;;;;;;13.15;100.00;102512.88;5049752;28;19931;-73
2023/09/03 00:05:39;;;;;;;;;;;;;;;13.24;100.00;102520.41;5054268;28;19920;-73
2023/09/03 00:08:05;;;;;;;;;;;;;;;13.30;100.00;102517.31;5053313;28;19931;-73
2023/09/03 00:10:34;;;;;;;;;;;;;;;13.27;100.00;102511.25;5046415;28;19916;-73
2023/09/03 00:12:59;;;;;;;;;;;;;;;13.14;100.00;102505.75;5054054;28;20342;-73
2023/09/03 00:15:25;;;;;;;;;;;;;;;13.08;100.00;102508.84;5073282;28;20135;-73
2023/09/03 00:17:50;;;;;;;;;;;;;;;13.01;100.00;102514.59;5051745;28;19921;-73
2023/09/03 00:20:16;;;;;;;;;;;;;;;12.99;100.00;102512.97;5050696;28;20366;-73
2023/09/03 00:22:41;;;;;;;;;;;;;;;12.95;100.00;102509.59;5052796;28;19916;-73
2023/09/03 00:25:07;;;;;;;;;;;;;;;12.93;100.00;102506.13;5052304;28;20034;-73
2023/09/03 00:27:32;;;;;;;;;;;;;;;13.01;100.00;102511.03;5072208;28;19921;-73
2023/09/03 00:29:57;;;;;;;;;;;;;;;13.04;100.00;102511.72;5052903;28;19924;-73
2023/09/03 00:32:22;;;;;;;;;;;;;;;13.11;100.00;102511.34;5056272;28;19928;-73
2023/09/03 00:34:48;;;;;;;;;;;;;;;13.19;100.00;102517.13;5059687;28;19925;-72
2023/09/03 00:37:13;;;;;;;;;;;;;;;13.23;100.00;102515.09;5050933;28;19916;-73
2023/09/03 00:39:38;;;;;;;;;;;;;;;13.19;100.00;102512.59;5052273;28;19925;-73
2023/09/03 00:42:03;;;;;;;;;;;;;;;13.16;100.00;102517.31;5055222;28;19955;-73
2023/09/03 00:44:28;;;;;;;;;;;;;;;13.16;100.00;102526.25;5056818;28;20030;-73
2023/09/03 00:46:54;;;;;;;;;;;;;;;13.14;100.00;102528.19;5057624;28;19921;-73
2023/09/03 00:49:19;;;;;;;;;;;;;;;13.15;100.00;102537.16;5056417;28;19924;-73
2023/09/03 00:51:45;;;;;;;;;;;;;;;13.09;100.00;102541.13;5053642;28;20135;-73
2023/09/03 00:54:10;;;;;;;;;;;;;;;13.06;100.00;102541.28;5057292;28;19916;-73
2023/09/03 00:56:35;;;;;;;;;;;;;;;12.94;100.00;102545.63;5053992;28;19916;-73
2023/09/03 00:59:00;;;;;;;;;;;;;;;12.92;100.00;102541.25;5057503;28;19927;-73
2023/09/03 01:01:27;;;;;;;;;;;;;;;12.88;100.00;102554.06;5053255;28;19924;-72
2023/09/03 01:03:52;;;;;;;;;;;;;;;12.86;100.00;102551.44;5060210;28;20376;-73
2023/09/03 01:06:17;;;;;;;;;;;;;;;12.78;100.00;102539.41;5054855;28;20336;-73
2023/09/03 01:08:42;;;;;;;;;;;;;;;12.68;100.00;102531.00;5058482;28;20437;-73
2023/09/03 01:11:11;;;;;;;;;;;;;;;12.67;100.00;102535.53;5053151;28;20431;-73
2023/09/03 01:13:49;;;;;;;;;;;;;;;12.63;100.00;102519.63;5058519;28;19920;-73
2023/09/03 01:16:18;;;;;;;;;;;;;;;12.63;100.00;102514.22;5058191;28;19932;-73
2023/09/03 01:18:44;;;;;;;;;;;;;;;12.70;100.00;102519.19;5054998;28;19955;-73
2023/09/03 01:21:18;;;;;;;;;;;;;;;12.80;100.00;102526.69;5051822;28;20023;-73
2023/09/03 01:24:02;;;;;;;;;;;;;;;12.86;100.00;102527.19;5055661;28;19972;-73
2023/09/03 01:26:57;;;;;;;;;;;;;;;12.87;100.00;102528.06;5053529;28;19920;-73
2023/09/03 01:29:22;;;;;;;;;;;;;;;12.93;100.00;102529.50;5047185;28;19928;-73
2023/09/03 01:31:47;;;;;;;;;;;;;;;12.91;100.00;102529.63;5058015;28;21473;-73
2023/09/03 01:34:12;;;;;;;;;;;;;;;12.84;100.00;102529.13;5056669;28;19985;-73
2023/09/03 01:36:37;;;;;;;;;;;;;;;12.83;100.00;102527.41;5040395;28;19994;-73
2023/09/03 01:39:03;;;;;;;;;;;;;;;12.62;100.00;102528.66;5059695;28;19961;-73
2023/09/03 01:41:30;;;;;;;;;;;;;;;12.42;100.00;102525.34;5065196;28;19924;-73
2023/09/03 01:43:55;;;;;;;;;;;;;;;12.40;100.00;102530.81;5057634;28;19924;-73
2023/09/03 01:46:35;;;;;;;;;;;;;;;12.44;100.00;102528.81;5035176;28;20166;-73
2023/09/03 01:49:06;;;;;;;;;;;;;;;12.49;100.00;102529.41;5053217;28;20081;-73
2023/09/03 01:51:34;;;;;;;;;;;;;;;12.57;100.00;102534.34;5057406;28;19951;-73
2023/09/03 01:54:11;;;;;;;;;;;;;;;12.60;100.00;102542.25;5054710;28;19920;-73
2023/09/03 01:56:39;;;;;;;;;;;;;;;12.63;100.00;102550.16;5051509;28;19928;-73
2023/09/03 01:59:06;;;;;;;;;;;;;;;12.67;100.00;102554.41;5066959;28;19930;-73
2023/09/03 02:01:33;;;;;;;;;;;;;;;12.70;100.00;102550.63;5053518;28;19923;-73
2023/09/03 02:03:58;;;;;;;;;;;;;;;12.71;100.00;102545.16;5055222;28;19928;-73
2023/09/03 02:06:24;;;;;;;;;;;;;;;12.70;100.00;102559.59;5064492;28;19920;-73
2023/09/03 02:08:49;;;;;;;;;;;;;;;12.71;100.00;102557.78;5053319;28;20019;-73
2023/09/03 02:11:14;;;;;;;;;;;;;;;12.75;100.00;102560.19;5057076;28;20027;-73
2023/09/03 02:13:40;;;;;;;;;;;;;;;12.76;100.00;102550.28;5060446;28;19959;-73
2023/09/03 02:16:05;;;;;;;;;;;;;;;12.78;100.00;102551.06;5050768;28;20290;-73
2023/09/03 02:18:30;;;;;;;;;;;;;;;12.78;100.00;102559.16;5055710;28;19983;-73
2023/09/03 02:20:56;;;;;;;;;;;;;;;12.81;100.00;102555.38;5056039;28;20003;-73
2023/09/03 02:23:21;;;;;;;;;;;;;;;12.79;100.00;102560.00;5052129;28;20424;-73
2023/09/03 02:25:46;;;;;;;;;;;;;;;12.75;100.00;102560.19;5053710;28;19962;-73
2023/09/03 02:28:11;;;;;;;;;;;;;;;12.70;100.00;102547.94;5054693;28;20015;-74
2023/09/03 02:30:36;;;;;;;;;;;;;;;12.55;100.00;102536.25;5054180;28;19932;-74
2023/09/03 02:33:02;;;;;;;;;;;;;;;12.45;100.00;102533.25;5049208;28;20355;-74
2023/09/03 02:35:27;;;;;;;;;;;;;;;12.36;100.00;102529.25;5057480;28;19924;-73
2023/09/03 02:37:52;;;;;;;;;;;;;;;12.35;100.00;102538.31;5054208;28;20020;-73
2023/09/03 02:40:18;;;;;;;;;;;;;;;12.36;100.00;102542.72;5051691;28;19924;-73
2023/09/03 02:42:44;;;;;;;;;;;;;;;12.40;100.00;102549.69;5046556;28;19920;-73
2023/09/03 02:45:09;;;;;;;;;;;;;;;12.44;100.00;102559.31;5057852;28;20370;-73
2023/09/03 02:47:34;;;;;;;;;;;;;;;12.47;100.00;102562.75;5054088;28;20419;-73
2023/09/03 02:50:00;;;;;;;;;;;;;;;12.45;100.00;102569.09;5052228;28;19921;-73
2023/09/03 02:52:25;;;;;;;;;;;;;;;12.36;100.00;102563.38;5054554;28;19931;-73
2023/09/03 02:54:51;;;;;;;;;;;;;;;12.29;100.00;102561.06;5056459;28;19980;-73
2023/09/03 02:57:16;;;;;;;;;;;;;;;12.21;100.00;102565.13;5052352;28;19999;-74
2023/09/03 02:59:44;;;;;;;;;;;;;;;12.06;100.00;102551.63;5055612;28;20155;-74
2023/09/03 03:02:10;;;;;;;;;;;;;;;12.03;100.00;102551.78;5058065;28;19920;-74
2023/09/03 03:04:35;;;;;;;;;;;;;;;11.97;100.00;102539.53;5057208;28;20029;-74
2023/09/03 03:07:00;;;;;;;;;;;;;;;11.88;100.00;102533.78;5055771;28;19920;-74
2023/09/03 03:09:25;;;;;;;;;;;;;;;11.92;100.00;102532.66;5060262;28;19920;-74
2023/09/03 03:11:50;;;;;;;;;;;;;;;11.99;100.00;102532.25;5055530;28;20057;-74
2023/09/03 03:14:15;;;;;;;;;;;;;;;11.95;100.00;102527.09;5058281;28;20023;-73
2023/09/03 03:16:41;;;;;;;;;;;;;;;11.91;100.00;102521.00;5061427;28;19921;-74
2023/09/03 03:19:06;;;;;;;;;;;;;;;11.82;100.00;102521.53;5051577;28;19921;-74
2023/09/03 03:21:31;;;;;;;;;;;;;;;11.98;100.00;102522.41;5054236;28;20035;-74
2023/09/03 03:23:57;;;;;;;;;;;;;;;12.11;100.00;102530.69;5054382;28;20021;-74
2023/09/03 03:26:22;;;;;;;;;;;;;;;12.22;100.00;102543.53;5057361;28;19920;-73
2023/09/03 03:28:47;;;;;;;;;;;;;;;12.33;100.00;102563.56;5053759;28;19921;-73
2023/09/03 03:31:16;;;;;;;;;;;;;;;12.36;100.00;102563.38;5059602;28;19936;-74
2023/09/03 03:33:42;;;;;;;;;;;;;;;12.36;100.00;102574.16;5057296;28;20352;-74
2023/09/03 03:36:09;;;;;;;;;;;;;;;12.32;100.00;102575.28;5061534;28;19927;-74
2023/09/03 03:38:34;;;;;;;;;;;;;;;12.35;100.00;102581.41;5060103;28;20341;-73
2023/09/03 03:41:12;;;;;;;;;;;;;;;12.32;100.00;102580.69;5063772;28;19924;-74
2023/09/03 03:43:38;;;;;;;;;;;;;;;12.29;100.00;102568.28;5056627;28;19916;-73
2023/09/03 03:46:06;;;;;;;;;;;;;;;12.27;100.00;102572.88;5056448;28;19947;-73
2023/09/03 03:48:32;;;;;;;;;;;;;;;12.20;100.00;102569.69;5058460;28;19924;-73
2023/09/03 03:50:57;;;;;;;;;;;;;;;12.05;100.00;102567.88;5060166;28;19986;-74
2023/09/03 03:53:22;;;;;;;;;;;;;;;11.89;100.00;102570.53;5056747;28;19966;-73
2023/09/03 03:55:55;;;;;;;;;;;;;;;11.91;100.00;102574.00;5054475;28;19924;-74
2023/09/03 03:58:20;;;;;;;;;;;;;;;11.91;100.00;102576.69;5054359;28;20446;-73
2023/09/03 04:00:46;;;;;;;;;;;;;;;11.91;100.00;102574.00;5051213;28;19916;-73
2023/09/03 04:03:11;;;;;;;;;;;;;;;11.95;100.00;102586.31;5058596;28;19955;-74
2023/09/03 04:05:36;;;;;;;;;;;;;;;11.98;100.00;102591.50;5056904;28;20108;-73
2023/09/03 04:08:01;;;;;;;;;;;;;;;11.95;100.00;102589.88;5053553;28;19981;-73
2023/09/03 04:10:26;;;;;;;;;;;;;;;11.93;100.00;102583.72;5060791;28;19920;-74
2023/09/03 04:12:52;;;;;;;;;;;;;;;11.90;100.00;102589.25;5052916;28;19970;-74
2023/09/03 04:15:17;;;;;;;;;;;;;;;11.95;100.00;102595.25;5050533;28;19919;-73
2023/09/03 04:17:43;;;;;;;;;;;;;;;11.99;100.00;102594.19;5053931;28;19927;-74
2023/09/03 04:20:08;;;;;;;;;;;;;;;12.02;100.00;102600.34;5058267;28;19920;-74
2023/09/03 04:22:33;;;;;;;;;;;;;;;12.06;100.00;102601.88;5050989;28;20027;-73
2023/09/03 04:24:59;;;;;;;;;;;;;;;12.05;100.00;102603.72;5047677;28;20345;-74
2023/09/03 04:27:24;;;;;;;;;;;;;;;11.99;100.00;102591.47;5052889;28;20388;-73
2023/09/03 04:29:49;;;;;;;;;;;;;;;11.93;100.00;102589.09;5054937;28;20386;-74
2023/09/03 04:32:14;;;;;;;;;;;;;;;11.95;100.00;102592.56;5056707;28;20382;-74
2023/09/03 04:34:39;;;;;;;;;;;;;;;11.97;100.00;102595.16;5056272;28;20412;-73
2023/09/03 04:37:05;;;;;;;;;;;;;;;11.84;100.00;102574.31;5053902;28;19942;-73
2023/09/03 04:39:30;;;;;;;;;;;;;;;11.98;100.00;102597.78;5055733;28;19924;-73
2023/09/03 04:41:56;;;;;;;;;;;;;;;11.99;100.00;102598.66;5039117;28;19931;-73
2023/09/03 04:44:21;;;;;;;;;;;;;;;11.98;100.00;102600.47;5037286;28;20374;-73
2023/09/03 04:46:46;;;;;;;;;;;;;;;11.99;100.00;102601.38;5054495;28;19932;-73
2023/09/03 04:49:12;;;;;;;;;;;;;;;12.00;100.00;102604.00;5056854;28;19970;-73
2023/09/03 04:51:37;;;;;;;;;;;;;;;12.05;100.00;102614.50;5055046;28;20405;-74
2023/09/03 04:54:02;;;;;;;;;;;;;;;12.12;100.00;102626.66;5055332;28;19919;-73
2023/09/03 04:56:27;;;;;;;;;;;;;;;12.15;100.00;102629.19;5037160;28;19919;-73
2023/09/03 04:58:53;;;;;;;;;;;;;;;12.20;100.00;102628.91;5041050;28;19920;-73
2023/09/03 05:01:18;;;;;;;;;;;;;;;12.20;100.00;102628.91;5058684;28;19924;-73
2023/09/03 05:03:43;;;;;;;;;;;;;;;12.10;100.00;102635.75;5035520;28;20481;-73
2023/09/03 05:06:15;;;;;;;;;;;;;;;11.87;100.00;102631.63;5050503;28;20015;-73
2023/09/03 05:08:41;;;;;;;;;;;;;;;11.88;100.00;102636.06;5058054;28;19936;-73
2023/09/03 05:11:07;;;;;;;;;;;;;;;11.97;100.00;102640.94;5059650;28;19921;-73
2023/09/03 05:13:32;;;;;;;;;;;;;;;12.02;100.00;102644.28;5054861;28;20362;-72
2023/09/03 05:15:57;;;;;;;;;;;;;;;12.11;100.00;102648.28;5054502;28;19920;-73
2023/09/03 05:18:22;;;;;;;;;;;;;;;12.19;100.00;102658.59;5056566;28;19920;-74
2023/09/03 05:20:47;;;;;;;;;;;;;;;12.26;100.00;102660.91;5033199;28;20074;-73
2023/09/03 05:23:13;;;;;;;;;;;;;;;12.33;100.00;102656.03;5059242;28;19920;-73
2023/09/03 05:25:38;;;;;;;;;;;;;;;12.39;100.00;102653.00;5057645;28;19928;-73
2023/09/03 05:28:03;;;;;;;;;;;;;;;12.45;100.00;102649.94;5058784;28;19920;-73
2023/09/03 05:30:30;;;;;;;;;;;;;;;12.45;100.00;102649.06;5057301;28;19994;-73
2023/09/03 05:32:55;;;;;;;;;;;;;;;12.47;100.00;102647.16;5049597;28;19924;-73
2023/09/03 05:35:20;;;;;;;;;;;;;;;12.52;100.00;102655.84;5056103;28;19927;-73
2023/09/03 05:37:45;;;;;;;;;;;;;;;12.57;100.00;102658.28;5057957;28;19921;-73
2023/09/03 05:40:11;;;;;;;;;;;;;;;12.63;100.00;102651.66;5054407;28;20469;-73
2023/09/03 05:42:36;;;;;;;;;;;;;;;12.67;100.00;102656.81;5053549;28;20480;-73
2023/09/03 05:45:01;;;;;;;;;;;;;;;12.72;100.00;102668.16;5061940;28;19924;-74
2023/09/03 05:47:26;;;;;;;;;;;;;;;12.79;100.00;102670.50;5048765;28;19947;-73
2023/09/03 05:49:53;;;;;;;;;;;;;;;12.83;100.00;102681.03;5055642;28;20042;-73
2023/09/03 05:52:18;;;;;;;;;;;;;;;12.86;100.00;102675.44;5057488;28;19924;-74
2023/09/03 05:54:43;;;;;;;;;;;;;;;12.90;100.00;102679.69;5052776;28;19959;-73
2023/09/03 05:57:08;;;;;;;;;;;;;;;12.94;100.00;102685.81;5053527;28;20012;-73
2023/09/03 05:59:33;;;;;;;;;;;;;;;13.01;100.00;102675.53;5051530;28;19967;-73
2023/09/03 06:01:59;;;;;;;;;;;;;;;13.02;100.00;102671.88;5052563;28;19931;-73
2023/09/03 06:04:24;;;;;;;;;;;;;;;12.97;100.00;102677.53;5057038;28;19920;-73
2023/09/03 06:06:49;;;;;;;;;;;;;;;12.97;100.00;102677.53;5056148;28;20373;-73
2023/09/03 06:09:18;;;;;;;;;;;;;;;13.05;100.00;102683.31;5058349;28;19924;-73
2023/09/03 06:11:44;;;;;;;;;;;;;;;13.14;100.00;102686.44;5055783;28;19963;-74
2023/09/03 06:14:09;;;;;;;;;;;;;;;13.25;100.00;102691.19;5061226;28;20523;-73
2023/09/03 06:16:35;;;;;;;;;;;;;;;13.35;100.00;102697.78;5053027;28;19989;-73
2023/09/03 06:19:00;;;;;;;;;;;;;;;13.48;100.00;102714.13;5058493;28;19927;-73
2023/09/03 06:21:26;;;;;;;;;;;;;;;13.57;100.00;102713.56;5053958;28;19920;-73
2023/09/03 06:23:52;;;;;;;;;;;;;;;13.67;100.00;102716.56;5050193;28;20601;-73
2023/09/03 06:26:17;;;;;;;;;;;;;;;13.80;100.00;102722.06;5035947;28;19927;-73
2023/09/03 06:28:42;;;;;;;;;;;;;;;13.92;100.00;102728.53;5051627;28;19970;-73
2023/09/03 06:31:08;;;;;;;;;;;;;;;13.99;100.00;102734.47;5047991;28;20023;-73
2023/09/03 06:33:33;;;;;;;;;;;;;;;14.02;100.00;102720.78;5055831;28;19924;-73
2023/09/03 06:35:58;;;;;;;;;;;;;;;14.06;100.00;102741.19;5056460;28;19920;-73
2023/09/03 06:38:23;;;;;;;;;;;;;;;14.10;100.00;102738.22;5056247;28;19968;-73
2023/09/03 06:40:49;;;;;;;;;;;;;;;14.24;100.00;102748.16;5056731;28;19927;-72
2023/09/03 06:43:14;;;;;;;;;;;;;;;14.35;100.00;102752.88;5050750;28;19962;-73
2023/09/03 06:45:39;;;;;;;;;;;;;;;14.50;100.00;102751.03;5052539;28;19931;-73
2023/09/03 06:48:05;;;;;;;;;;;;;;;14.66;100.00;102761.72;5055868;28;20362;-73
2023/09/03 06:50:30;;;;;;;;;;;;;;;14.78;100.00;102770.03;5056439;28;20625;-73
2023/09/03 06:52:55;;;;;;;;;;;;;;;14.92;100.00;102770.00;5056719;28;19959;-73
2023/09/03 06:55:20;;;;;;;;;;;;;;;15.04;100.00;102764.72;5054572;28;19996;-72
2023/09/03 06:57:46;;;;;;;;;;;;;;;15.20;100.00;102767.28;5056288;28;20010;-73
2023/09/03 07:00:11;;;;;;;;;;;;;;;15.32;100.00;102771.00;5060263;28;19924;-73
2023/09/03 07:02:36;;;;;;;;;;;;;;;15.43;100.00;102763.88;5061200;28;19931;-73
2023/09/03 07:05:01;;;;;;;;;;;;;;;15.50;100.00;102755.34;5048076;28;20330;-73
2023/09/03 07:07:27;;;;;;;;;;;;;;;15.63;100.00;102763.50;5048349;28;20595;-73
2023/09/03 07:09:52;;;;;;;;;;;;;;;15.62;100.00;102749.13;5049536;28;20545;-73
2023/09/03 07:12:18;;;;;;;;;;;;;;;15.64;100.00;102749.84;5045141;28;19928;-73
2023/09/03 07:14:43;;;;;;;;;;;;;;;15.74;100.00;102747.38;5047003;28;19920;-73
2023/09/03 07:17:08;;;;;;;;;;;;;;;15.74;100.00;102750.09;5048935;28;19971;-73
2023/09/03 07:19:33;;;;;;;;;;;;;;;15.76;100.00;102748.13;5047290;28;19924;-73
2023/09/03 07:21:59;;;;;;;;;;;;;;;15.58;100.00;102723.22;5046676;28;19956;-73
2023/09/03 07:24:24;;;;;;;;;;;;;;;15.85;100.00;102733.09;5049271;28;19951;-73
2023/09/03 07:26:49;;;;;;;;;;;;;;;15.92;100.00;102753.38;5045912;28;19953;-73
2023/09/03 07:29:14;;;;;;;;;;;;;;;15.88;100.00;102757.28;5063766;28;19983;-73
2023/09/03 07:31:43;;;;;;;;;;;;;;;15.95;100.00;102761.28;5057230;28;20368;-73
2023/09/03 07:34:09;;;;;;;;;;;;;;;16.15;100.00;102770.72;5043369;28;20003;-73
2023/09/03 07:36:34;;;;;;;;;;;;;;;16.34;100.00;102772.09;5065511;28;19925;-74
2023/09/03 07:39:00;;;;;;;;;;;;;;;16.46;100.00;102776.66;5046632;28;19989;-73
2023/09/03 07:41:25;;;;;;;;;;;;;;;16.41;100.00;102783.41;5046721;28;19999;-73
2023/09/03 07:43:51;;;;;;;;;;;;;;;16.41;100.00;102781.53;5041125;28;19960;-73
2023/09/03 07:46:17;;;;;;;;;;;;;;;16.46;100.00;102782.06;5046994;28;20349;-73
2023/09/03 07:48:42;;;;;;;;;;;;;;;16.46;100.00;102784.78;5044054;28;20437;-73
2023/09/03 07:51:07;;;;;;;;;;;;;;;16.61;100.00;102781.91;5046836;28;20456;-73
2023/09/03 07:53:33;;;;;;;;;;;;;;;16.62;100.00;102783.66;5050502;28;20114;-72
2023/09/03 07:55:58;;;;;;;;;;;;;;;16.63;100.00;102779.97;5045182;28;19924;-72
2023/09/03 07:58:23;;;;;;;;;;;;;;;16.74;100.00;102787.31;5047321;28;20178;-72
2023/09/03 08:00:49;;;;;;;;;;;;;;;16.91;100.00;102792.38;5048463;28;20131;-72
2023/09/03 08:03:14;;;;;;;;;;;;;;;17.06;100.00;102789.53;5045013;28;19925;-73
2023/09/03 08:05:39;;;;;;;;;;;;;;;17.11;100.00;102787.34;5059482;28;19935;-72
2023/09/03 08:08:05;;;;;;;;;;;;;;;17.13;100.00;102789.94;5062648;28;19921;-72
2023/09/03 08:10:30;;;;;;;;;;;;;;;17.28;100.00;102787.91;5044816;28;20208;-72
2023/09/03 08:12:55;;;;;;;;;;;;;;;17.50;100.00;102790.72;5047674;28;20022;-72
2023/09/03 08:15:20;;;;;;;;;;;;;;;17.62;100.00;102786.19;5046219;28;20020;-72
2023/09/03 08:17:46;;;;;;;;;;;;;;;17.72;100.00;102775.50;5047507;28;19916;-74
2023/09/03 08:20:12;;;;;;;;;;;;;;;17.85;100.00;102783.56;5050826;28;19924;-72
2023/09/03 08:22:37;;;;;;;;;;;;;;;18.04;100.00;102785.69;5054348;28;19946;-72
2023/09/03 08:25:02;;;;;;;;;;;;;;;18.25;100.00;102788.56;5054699;28;21231;-72
2023/09/03 08:27:27;;;;;;;;;;;;;;;18.28;100.00;102788.31;5056806;28;19920;-72
2023/09/03 08:29:53;;;;;;;;;;;;;;;18.47;100.00;102791.41;5057126;28;19985;-72
2023/09/03 08:32:18;;;;;;;;;;;;;;;18.68;100.00;102792.38;5056502;28;19964;-72
2023/09/03 08:34:43;;;;;;;;;;;;;;;18.83;100.00;102794.81;5053750;28;20031;-72
2023/09/03 08:37:08;;;;;;;;;;;;;;;19.00;100.00;102794.34;5057083;28;19928;-72
2023/09/03 08:39:34;;;;;;;;;;;;;;;19.20;100.00;102794.53;5057370;28;19921;-72
2023/09/03 08:41:59;;;;;;;;;;;;;;;18.99;100.00;102789.00;5054880;28;19920;-72
2023/09/03 08:44:40;;;;;;;;;;;;;;;19.31;100.00;102791.78;5056681;28;19986;-72
2023/09/03 08:47:05;;;;;;;;;;;;;;;19.55;100.00;102790.66;5055770;28;19991;-72
2023/09/03 08:49:31;;;;;;;;;;;;;;;19.55;100.00;102787.06;5059506;28;20235;-72
2023/09/03 08:51:57;;;;;;;;;;;;;;;19.35;100.00;102786.91;5057620;28;20342;-72
2023/09/03 08:54:22;;;;;;;;;;;;;;;19.34;100.00;102787.91;5058645;28;19943;-73
2023/09/03 08:56:48;;;;;;;;;;;;;;;19.50;100.00;102795.66;5061524;28;20607;-73
2023/09/03 08:59:13;;;;;;;;;;;;;;;19.64;100.00;102783.56;5040799;28;19931;-74
2023/09/03 09:01:38;;;;;;;;;;;;;;;19.54;100.00;102778.03;5057652;28;19943;-72
2023/09/03 09:04:04;;;;;;;;;;;;;;;19.61;100.00;102779.22;5062737;28;20362;-73
2023/09/03 09:06:29;;;;;;;;;;;;;;;20.01;100.00;102780.38;5056268;28;20355;-73
2023/09/03 09:08:54;;;;;;;;;;;;;;;20.13;100.00;102781.16;5035279;28;20270;-73
2023/09/03 09:11:20;;;;;;;;;;;;;;;20.07;100.00;102779.84;5049836;28;21995;-73
2023/09/03 09:13:54;;;;;;;;;;;;;;;20.10;100.00;102783.28;5051573;28;19974;-73
2023/09/03 09:16:19;;;;;;;;;;;;;;;20.17;100.00;102787.22;5048282;28;19974;-72
2023/09/03 09:18:44;;;;;;;;;;;;;;;20.23;100.00;102779.34;5048733;28;20015;-73
2023/09/03 09:21:09;;;;;;;;;;;;;;;20.50;100.00;102777.88;5047743;28;20013;-73
2023/09/03 09:23:34;;;;;;;;;;;;;;;20.84;100.00;102784.88;5051465;28;19924;-73
2023/09/03 09:26:00;;;;;;;;;;;;;;;21.25;100.00;102774.75;5043474;28;19923;-73
2023/09/03 09:28:26;;;;;;;;;;;;;;;21.45;100.00;102782.94;5050096;28;19948;-73
2023/09/03 09:30:57;;;;;;;;;;;;;;;21.44;100.00;102781.22;5051187;28;19940;-74
2023/09/03 09:33:22;;;;;;;;;;;;;;;21.25;100.00;102782.94;5043124;28;20294;-73
2023/09/03 09:35:48;;;;;;;;;;;;;;;21.28;100.00;102777.19;5046907;28;19924;-73
2023/09/03 09:38:13;;;;;;;;;;;;;;;21.64;100.00;102783.94;5046102;28;20133;-74
2023/09/03 09:40:38;;;;;;;;;;;;;;;21.93;100.00;102774.84;5045141;28;19925;-73
2023/09/03 09:43:05;;;;;;;;;;;;;;;21.76;100.00;102770.97;5047188;28;20362;-73
2023/09/03 09:45:31;;;;;;;;;;;;;;;22.02;100.00;102772.06;5042719;28;20019;-73
2023/09/03 09:48:02;;;;;;;;;;;;;;;22.24;100.00;102761.78;5049353;28;20585;-74
2023/09/03 09:50:31;;;;;;;;;;;;;;;22.29;100.00;102764.91;5040932;28;19920;-73
2023/09/03 09:52:57;;;;;;;;;;;;;;;22.28;100.00;102771.38;5051396;28;19928;-73
2023/09/03 09:55:22;;;;;;;;;;;;;;;22.21;100.00;102770.28;5044691;28;19966;-72
2023/09/03 09:57:49;;;;;;;;;;;;;;;21.92;100.00;102773.09;5051661;28;20017;-73
2023/09/03 10:00:15;;;;;;;;;;;;;;;21.72;100.00;102770.44;5051479;28;19924;-72
2023/09/03 10:02:40;;;;;;;;;;;;;;;21.73;100.00;102770.25;5065277;28;19961;-73
2023/09/03 10:05:08;;;;;;;;;;;;;;;22.04;100.00;102777.41;5051308;28;19982;-72
2023/09/03 10:07:34;;;;;;;;;;;;;;;22.54;100.00;102778.94;5070785;28;20445;-73
2023/09/03 10:09:59;;;;;;;;;;;;;;;22.79;100.00;102784.69;5063889;28;19952;-72
2023/09/03 10:12:24;;;;;;;;;;;;;;;22.94;100.00;102784.19;5050665;28;20370;-72
2023/09/03 10:14:49;;;;;;;;;;;;;;;22.88;100.00;102783.78;5052086;28;19916;-73
2023/09/03 10:17:15;;;;;;;;;;;;;;;22.96;100.00;102779.44;5056854;28;19974;-72
2023/09/03 10:19:42;;;;;;;;;;;;;;;23.18;100.00;102783.56;5062735;28;20101;-70
2023/09/03 10:22:07;;;;;;;;;;;;;;;23.60;100.00;102774.72;5054726;28;21046;-73
2023/09/03 10:24:32;;;;;;;;;;;;;;;23.87;100.00;102767.38;5049742;28;19927;-73
2023/09/03 10:26:59;;;;;;;;;;;;;;;24.08;95.74;102771.66;5059859;28;19920;-74
2023/09/03 10:29:25;;;;;;;;;;;;;;;24.27;95.82;102774.13;5057402;28;19932;-74
2023/09/03 10:31:51;;;;;;;;;;;;;;;24.25;98.47;102776.19;5056538;28;20582;-76
2023/09/03 10:34:16;;;;;;;;;;;;;;;24.35;89.92;102772.47;5034858;28;19975;-76
2023/09/03 10:37:00;;;;;;;;;;;;;;;24.43;92.25;102769.78;5057102;28;19924;-76
2023/09/03 10:39:25;;;;;;;;;;;;;;;24.13;92.33;102780.25;5058251;28;19970;-76
2023/09/03 10:42:09;;;;;;;;;;;;;;;24.13;90.77;102774.78;5059528;28;20364;-74
2023/09/03 10:44:35;;;;;;;;;;;;;;;24.53;78.33;102773.22;5068325;28;20402;-74
2023/09/03 10:47:00;;;;;;;;;;;;;;;24.81;63.41;102762.00;5051666;28;19920;-74
2023/09/03 10:49:41;;;;;;;;;;;;;;;24.34;66.26;102768.00;5055287;28;19920;-74
2023/09/03 10:52:25;;;;;;;;;;;;;;;24.79;65.94;102765.97;5033540;28;20397;-73
2023/09/03 10:55:09;;;;;;;;;;;;;;;25.05;61.71;102767.72;5057307;28;20287;-72
2023/09/03 10:57:34;;;;;;;;;;;;;;;24.93;72.48;102764.44;5057510;28;19928;-73
2023/09/03 11:00:05;;;;;;;;;;;;;;;24.95;68.72;102759.66;5055495;28;19959;-72
2023/09/03 11:02:30;;;;;;;;;;;;;;;24.79;63.25;102766.81;5051499;28;19963;-72
2023/09/03 11:05:14;;;;;;;;;;;;;;;25.03;72.30;102765.13;5051838;28;20117;-73
2023/09/03 11:07:43;;;;;;;;;;;;;;;25.20;71.91;102767.94;5056122;28;20276;-72
2023/09/03 11:10:21;;;;;;;;;;;;;;;25.25;71.84;102768.28;5058264;28;20027;-73
2023/09/03 11:12:49;;;;;;;;;;;;;;;25.07;71.64;102760.19;5053069;28;19974;-72
2023/09/03 11:15:14;;;;;;;;;;;;;;;25.41;69.00;102768.28;5056915;28;20379;-73
2023/09/03 11:17:41;;;;;;;;;;;;;;;24.71;64.71;102751.19;5056397;28;20010;-72
2023/09/03 11:20:08;;;;;;;;;;;;;;;24.99;72.71;102767.38;5054993;28;19920;-72
2023/09/03 11:22:37;;;;;;;;;;;;;;;24.84;67.09;102767.19;5056199;28;19920;-72
2023/09/03 11:25:02;;;;;;;;;;;;;;;25.30;68.45;102774.09;5051468;28;19924;-72
2023/09/03 11:27:28;;;;;;;;;;;;;;;25.85;69.28;102775.31;5056203;28;19924;-72
2023/09/03 11:30:02;;;;;;;;;;;;;;;25.80;67.15;102779.63;5054338;28;20390;-72
2023/09/03 11:32:34;;;;;;;;;;;;;;;25.71;60.86;102774.13;5052952;28;19928;-71
2023/09/03 11:35:00;;;;;;;;;;;;;;;25.82;56.91;102777.56;5049555;28;20373;-72
2023/09/03 11:37:25;;;;;;;;;;;;;;;26.13;62.25;102777.69;5047717;28;19964;-72
2023/09/03 11:39:50;;;;;;;;;;;;;;;25.89;62.04;102775.81;5047594;28;19924;-72
2023/09/03 11:42:15;;;;;;;;;;;;;;;26.32;65.81;102776.41;5048244;28;19948;-72
2023/09/03 11:44:40;;;;;;;;;;;;;;;26.38;63.64;102766.59;5047932;28;20610;-73
2023/09/03 11:47:06;;;;;;;;;;;;;;;26.28;59.97;102771.44;5050157;28;20366;-75
2023/09/03 11:49:31;;;;;;;;;;;;;;;26.07;58.23;102767.34;5049185;28;19920;-72
2023/09/03 11:52:15;;;;;;;;;;;;;;;26.50;56.00;102767.03;5049645;28;20378;-73
2023/09/03 11:54:40;;;;;;;;;;;;;;;27.36;54.03;102764.25;5047638;28;20022;-73
2023/09/03 11:57:06;;;;;;;;;;;;;;;27.46;47.97;102771.44;5050138;28;20342;-73
2023/09/03 11:59:31;;;;;;;;;;;;;;;27.53;54.68;102766.91;5051515;28;20378;-73
2023/09/03 12:01:56;;;;;;;;;;;;;;;28.01;45.53;102765.72;5046357;28;19959;-73
2023/09/03 12:04:22;;;;;;;;;;;;;;;27.29;49.24;102759.66;5050046;28;19926;-73
2023/09/03 12:06:47;;;;;;;;;;;;;;;27.36;50.48;102763.41;5050383;28;19928;-73
2023/09/03 12:09:12;;;;;;;;;;;;;;;27.57;51.39;102765.47;5049879;28;19924;-74
2023/09/03 12:11:38;;;;;;;;;;;;;;;28.24;49.51;102768.41;5047643;28;19916;-74
2023/09/03 12:14:03;;;;;;;;;;;;;;;28.77;48.79;102764.63;5049459;28;19936;-74
2023/09/03 12:16:28;;;;;;;;;;;;;;;28.85;45.87;102759.84;5048090;28;19920;-74
2023/09/03 12:18:55;;;;;;;;;;;;;;;28.86;43.72;102763.47;5046392;28;19920;-74
2023/09/03 12:21:20;;;;;;;;;;;;;;;29.45;43.22;102767.03;5049848;28;19920;-74
2023/09/03 12:23:45;;;;;;;;;;;;;;;29.90;46.14;102761.19;5031755;28;19920;-75